Time;durP1;ratioP1;P1;durP2;ratioP2;P2;SDS_P1;SDS_P2;PMS_P1;PMS_P2;Temp;Humidity;BMP_temperature;BMP_pressure;BME280_temperature;BME280_humidity;BME280_pressure;Samples;Min_cycle;Max_cycle;Signal;HPM_P1;HPM_P2
2023/09/23 00:02:11;;;;;;;8.27;2.78;;;32.80;28.80;;;;;;5047212;28;20629;-62
2023/09/23 00:04:38;;;;;;;14.40;3.20;;;32.70;29.50;;;;;;5053723;28;20031;-61
2023/09/23 00:07:05;;;;;;;15.88;3.03;;;32.60;30.30;;;;;;5067947;28;20020;-60
2023/09/23 00:09:31;;;;;;;13.07;3.72;;;32.70;30.70;;;;;;5066888;28;20052;-57
2023/09/23 00:12:00;;;;;;;21.15;3.60;;;32.60;32.80;;;;;;5063817;28;20021;-60
2023/09/23 00:14:28;;;;;;;21.60;3.70;;;32.50;33.40;;;;;;5062238;28;20071;-63
2023/09/23 00:16:55;;;;;;;14.13;3.35;;;32.40;33.50;;;;;;5067134;28;20013;-60
2023/09/23 00:19:21;;;;;;;16.00;4.07;;;32.30;33.80;;;;;;5066316;28;20390;-58
2023/09/23 00:21:49;;;;;;;14.63;4.72;;;32.30;34.10;;;;;;5066886;28;20550;-61
2023/09/23 00:24:15;;;;;;;11.45;3.35;;;32.20;34.10;;;;;;5058240;28;20091;-59
2023/09/23 00:26:43;;;;;;;7.30;3.13;;;32.10;33.50;;;;;;5064798;28;20008;-60
2023/09/23 00:29:11;;;;;;;9.32;3.60;;;32.10;33.30;;;;;;5063717;28;20021;-61
2023/09/23 00:31:37;;;;;;;12.13;3.65;;;32.00;33.70;;;;;;5062829;28;20005;-62
2023/09/23 00:34:05;;;;;;;15.27;4.00;;;32.00;35.20;;;;;;5062420;28;20021;-60
2023/09/23 00:36:31;;;;;;;12.73;3.72;;;32.00;35.10;;;;;;5067362;28;20024;-61
2023/09/23 00:38:58;;;;;;;15.13;4.32;;;31.90;34.40;;;;;;5067045;28;20028;-61
2023/09/23 00:41:25;;;;;;;13.63;4.80;;;31.90;34.50;;;;;;5066831;28;20377;-61
2023/09/23 00:43:53;;;;;;;19.40;4.70;;;31.80;35.10;;;;;;5064440;28;20087;-61
2023/09/23 00:46:23;;;;;;;21.35;4.78;;;31.70;35.40;;;;;;5062819;28;20013;-61
2023/09/23 00:48:50;;;;;;;11.70;3.75;;;31.70;35.10;;;;;;5050551;28;20096;-62
2023/09/23 00:51:18;;;;;;;19.10;3.97;;;31.60;35.40;;;;;;5066287;28;20112;-61
2023/09/23 00:53:46;;;;;;;19.23;3.72;;;31.60;35.80;;;;;;5065826;28;20040;-64
2023/09/23 00:56:13;;;;;;;14.40;4.13;;;31.50;35.90;;;;;;5066925;28;20044;-61
2023/09/23 00:58:42;;;;;;;10.75;3.90;;;31.50;35.60;;;;;;5064994;28;20040;-61
2023/09/23 01:01:08;;;;;;;10.50;3.45;;;31.50;35.90;;;;;;5064989;28;20024;-62
2023/09/23 01:03:38;;;;;;;15.40;3.58;;;31.40;35.80;;;;;;5061971;28;20491;-61
2023/09/23 01:06:15;;;;;;;15.40;3.22;;;31.30;35.80;;;;;;5057997;28;20064;-62
2023/09/23 01:08:50;;;;;;;15.45;4.50;;;31.20;36.10;;;;;;5064102;28;20047;-59
2023/09/23 01:11:17;;;;;;;22.83;4.25;;;31.20;35.70;;;;;;5057950;28;20025;-61
2023/09/23 01:13:50;;;;;;;15.90;4.07;;;31.10;35.80;;;;;;5062084;28;20017;-61
2023/09/23 01:16:17;;;;;;;16.80;3.88;;;31.00;35.80;;;;;;5066079;28;20029;-61
2023/09/23 01:18:49;;;;;;;14.48;3.40;;;31.00;35.90;;;;;;5065264;28;20475;-60
2023/09/23 01:21:15;;;;;;;13.07;3.50;;;31.00;36.60;;;;;;5062098;28;20059;-61
2023/09/23 01:23:44;;;;;;;12.07;4.13;;;30.90;35.90;;;;;;5064611;28;20322;-58
2023/09/23 01:26:13;;;;;;;15.52;3.63;;;30.80;36.40;;;;;;5047958;28;20410;-60
2023/09/23 01:28:40;;;;;;;19.02;4.20;;;30.70;36.50;;;;;;5065627;28;20091;-60
2023/09/23 01:31:07;;;;;;;13.15;3.83;;;30.70;36.80;;;;;;5062071;28;20020;-59
2023/09/23 01:33:34;;;;;;;13.98;3.88;;;30.60;37.20;;;;;;5061242;28;20024;-60
2023/09/23 01:36:04;;;;;;;9.40;3.40;;;30.60;37.20;;;;;;5060892;28;20456;-60
2023/09/23 01:38:31;;;;;;;13.35;3.83;;;30.50;37.20;;;;;;5055390;28;20492;-57
2023/09/23 01:41:01;;;;;;;13.93;3.47;;;30.50;37.90;;;;;;5065786;28;20055;-59
2023/09/23 01:43:29;;;;;;;10.90;3.75;;;30.40;38.10;;;;;;5057582;28;20082;-57
2023/09/23 01:46:02;;;;;;;20.48;4.47;;;30.40;37.80;;;;;;5065755;28;20024;-59
2023/09/23 01:48:29;;;;;;;21.83;4.25;;;30.40;36.60;;;;;;5063163;28;20009;-60
2023/09/23 01:50:59;;;;;;;16.13;3.83;;;30.40;37.00;;;;;;5066016;28;20016;-59
2023/09/23 01:53:27;;;;;;;15.50;4.20;;;30.40;36.70;;;;;;5065565;28;20017;-57
2023/09/23 01:55:54;;;;;;;12.90;4.22;;;30.40;36.90;;;;;;5065451;28;20039;-59
2023/09/23 01:58:23;;;;;;;20.02;4.40;;;30.30;36.80;;;;;;5065113;28;20055;-56
2023/09/23 02:00:55;;;;;;;10.60;3.80;;;30.30;37.40;;;;;;5061784;28;20051;-57
2023/09/23 02:03:23;;;;;;;14.77;4.40;;;30.30;37.90;;;;;;5053256;28;20619;-57
2023/09/23 02:05:50;;;;;;;19.30;3.92;;;30.30;37.90;;;;;;5060753;28;20032;-58
2023/09/23 02:08:16;;;;;;;11.80;4.10;;;30.30;36.80;;;;;;5065694;28;20013;-60
2023/09/23 02:10:46;;;;;;;12.38;4.00;;;30.30;37.40;;;;;;5060454;28;20016;-60
2023/09/23 02:13:12;;;;;;;11.32;4.22;;;30.20;36.50;;;;;;5065707;28;20027;-58
2023/09/23 02:15:39;;;;;;;15.38;3.75;;;30.20;37.10;;;;;;5061011;28;20104;-61
2023/09/23 02:18:06;;;;;;;14.25;3.53;;;30.20;37.20;;;;;;5062683;28;20415;-59
2023/09/23 02:20:34;;;;;;;10.32;3.42;;;30.20;36.60;;;;;;5065686;28;20166;-61
2023/09/23 02:23:00;;;;;;;29.05;3.80;;;30.20;36.70;;;;;;5067177;28;20496;-60
2023/09/23 02:25:27;;;;;;;12.35;3.65;;;30.20;36.90;;;;;;5064420;28;20028;-57
2023/09/23 02:27:55;;;;;;;14.88;4.00;;;30.10;36.80;;;;;;5067455;28;20016;-60
2023/09/23 02:30:22;;;;;;;16.95;4.30;;;30.10;37.40;;;;;;5059781;28;20074;-62
2023/09/23 02:32:48;;;;;;;18.63;3.78;;;30.10;36.90;;;;;;5066939;28;20373;-58
2023/09/23 02:35:16;;;;;;;22.17;5.30;;;30.10;37.20;;;;;;5056350;28;20019;-61
2023/09/23 02:37:45;;;;;;;17.20;4.43;;;30.00;36.80;;;;;;5063387;28;20024;-62
2023/09/23 02:40:13;;;;;;;19.70;4.90;;;30.00;36.60;;;;;;5059767;28;20039;-59
2023/09/23 02:42:46;;;;;;;17.95;5.35;;;30.00;36.40;;;;;;5062827;28;20016;-53
2023/09/23 02:45:15;;;;;;;20.15;4.85;;;30.00;36.70;;;;;;5062741;28;20039;-61
2023/09/23 02:47:43;;;;;;;13.70;4.03;;;29.90;36.40;;;;;;5061524;28;20020;-61
2023/09/23 02:50:13;;;;;;;9.98;4.60;;;29.90;37.00;;;;;;5065217;28;20009;-60
2023/09/23 02:52:41;;;;;;;17.60;5.05;;;29.90;37.00;;;;;;5044695;28;20017;-60
2023/09/23 02:55:12;;;;;;;16.30;4.40;;;29.90;37.70;;;;;;5062307;28;20024;-59
2023/09/23 02:57:46;;;;;;;17.23;5.05;;;29.80;37.20;;;;;;5064166;28;20116;-60
2023/09/23 03:00:16;;;;;;;16.33;5.28;;;29.80;37.40;;;;;;5069261;28;20393;-60
2023/09/23 03:02:54;;;;;;;12.45;4.18;;;29.80;37.50;;;;;;5069348;28;20016;-60
2023/09/23 03:05:27;;;;;;;17.70;5.20;;;29.70;38.10;;;;;;5060297;28;20056;-60
2023/09/23 03:08:00;;;;;;;20.08;5.35;;;29.70;38.10;;;;;;5068484;28;20055;-59
2023/09/23 03:10:40;;;;;;;23.92;6.13;;;29.70;38.10;;;;;;5066307;28;20087;-58
2023/09/23 03:13:07;;;;;;;15.27;5.53;;;29.60;38.50;;;;;;5065069;28;20499;-59
2023/09/23 03:19:09;;;;;;;20.58;5.72;;;29.60;38.60;;;;;;4956217;28;20427;-60
2023/09/23 03:21:31;;;;;;;25.70;7.38;;;29.60;38.50;;;;;;4958100;28;20040;-59
2023/09/23 03:23:59;;;;;;;21.38;11.18;;;29.50;38.80;;;;;;4955875;28;20038;-59
2023/09/23 03:26:26;;;;;;;21.50;7.22;;;29.40;38.30;;;;;;4962182;28;20070;-61
2023/09/23 03:28:52;;;;;;;22.45;5.82;;;29.40;37.50;;;;;;4951805;28;20496;-61
2023/09/23 03:31:19;;;;;;;24.65;9.65;;;29.40;37.50;;;;;;4964041;28;20023;-61
2023/09/23 03:33:45;;;;;;;26.23;11.50;;;29.40;37.70;;;;;;4958944;28;20051;-60
2023/09/23 03:36:15;;;;;;;16.90;7.43;;;29.40;37.50;;;;;;4955681;28;20023;-62
2023/09/23 03:38:42;;;;;;;20.48;6.40;;;29.40;37.70;;;;;;4953645;28;20484;-59
2023/09/23 03:41:11;;;;;;;17.70;6.60;;;29.40;38.20;;;;;;4956765;28;20039;-61
2023/09/23 03:43:39;;;;;;;34.75;6.15;;;29.30;38.20;;;;;;4959558;28;20019;-59
2023/09/23 03:46:11;;;;;;;28.98;11.48;;;29.20;38.00;;;;;;4953263;28;20026;-60
2023/09/23 03:48:38;;;;;;;26.30;11.90;;;29.20;38.10;;;;;;4950465;28;20093;-61
2023/09/23 03:51:06;;;;;;;29.55;14.02;;;29.20;37.90;;;;;;4953588;28;20470;-60
2023/09/23 03:53:32;;;;;;;27.45;10.30;;;29.20;37.60;;;;;;4971843;28;20353;-59
2023/09/23 03:56:01;;;;;;;24.88;10.38;;;29.10;37.50;;;;;;5065124;28;20020;-60
2023/09/23 03:58:27;;;;;;;21.52;10.48;;;29.20;38.00;;;;;;5066393;28;20056;-62
2023/09/23 04:00:54;;;;;;;22.02;8.77;;;29.10;38.10;;;;;;5067215;28;20032;-61
2023/09/23 04:03:21;;;;;;;21.08;8.88;;;29.20;38.00;;;;;;5067682;28;20029;-57
2023/09/23 04:05:57;;;;;;;24.98;8.02;;;29.20;38.10;;;;;;5067518;28;20032;-61
2023/09/23 04:08:24;;;;;;;26.67;6.68;;;29.20;39.60;;;;;;5056389;28;20473;-59
2023/09/23 04:10:50;;;;;;;19.40;6.32;;;29.10;39.30;;;;;;5065526;28;20493;-60
2023/09/23 04:13:17;;;;;;;23.02;5.32;;;29.10;38.90;;;;;;5066642;28;20019;-57
2023/09/23 04:15:43;;;;;;;18.15;5.45;;;29.00;38.50;;;;;;5059428;28;20025;-59
2023/09/23 04:18:10;;;;;;;16.80;6.20;;;29.00;38.60;;;;;;5064418;28;20016;-60
2023/09/23 04:20:36;;;;;;;15.55;4.93;;;29.00;38.70;;;;;;5062944;28;20095;-60
2023/09/23 04:23:03;;;;;;;18.50;4.93;;;29.00;39.80;;;;;;5064481;28;20021;-60
2023/09/23 04:25:30;;;;;;;12.63;4.30;;;28.90;39.20;;;;;;5063138;28;20495;-60
2023/09/23 04:27:56;;;;;;;17.35;4.45;;;28.80;38.70;;;;;;5064633;28;20353;-59
2023/09/23 04:30:24;;;;;;;20.38;5.30;;;28.80;39.30;;;;;;5057809;28;20096;-65
2023/09/23 04:32:50;;;;;;;22.45;4.97;;;28.90;39.40;;;;;;5055646;28;20374;-65
2023/09/23 04:35:16;;;;;;;15.18;4.70;;;28.90;38.80;;;;;;5062168;28;20023;-64
2023/09/23 04:37:43;;;;;;;18.10;4.60;;;28.90;39.40;;;;;;5063849;28;20056;-61
2023/09/23 04:40:11;;;;;;;21.13;4.93;;;28.90;40.00;;;;;;5051789;28;20016;-63
2023/09/23 04:42:42;;;;;;;15.18;5.50;;;28.90;39.00;;;;;;5060955;28;20024;-66
2023/09/23 04:45:10;;;;;;;16.48;5.15;;;28.80;38.30;;;;;;5063960;28;20029;-61
2023/09/23 04:47:37;;;;;;;18.75;5.40;;;28.80;39.10;;;;;;5065271;28;20482;-62
2023/09/23 04:50:05;;;;;;;18.73;5.93;;;28.80;39.00;;;;;;5064080;28;20040;-61
2023/09/23 04:52:32;;;;;;;24.45;6.25;;;28.80;40.10;;;;;;5060052;28;20021;-61
2023/09/23 04:54:59;;;;;;;19.00;6.15;;;28.80;39.80;;;;;;5058214;28;20020;-60
2023/09/23 04:57:25;;;;;;;22.30;6.82;;;28.80;39.70;;;;;;5061378;28;20037;-60
2023/09/23 04:59:57;;;;;;;23.00;6.63;;;28.80;40.50;;;;;;5066227;28;20036;-59
2023/09/23 05:02:24;;;;;;;23.55;6.50;;;28.80;40.00;;;;;;5063577;28;20415;-62
2023/09/23 05:04:56;;;;;;;18.95;6.60;;;28.80;39.90;;;;;;5064560;28;20037;-62
2023/09/23 05:07:26;;;;;;;30.63;14.15;;;28.80;41.00;;;;;;5059618;28;20024;-60
2023/09/23 05:09:56;;;;;;;34.60;9.60;;;28.80;40.40;;;;;;5064442;28;20016;-64
2023/09/23 05:12:24;;;;;;;23.40;9.00;;;28.70;39.50;;;;;;5065412;28;20020;-61
2023/09/23 05:14:51;;;;;;;26.38;9.02;;;28.70;40.10;;;;;;5060167;28;20078;-63
2023/09/23 05:17:18;;;;;;;23.70;6.97;;;28.60;38.70;;;;;;5051906;28;20059;-59
2023/09/23 05:19:46;;;;;;;25.23;7.55;;;28.60;39.10;;;;;;5060346;28;20025;-62
2023/09/23 05:22:12;;;;;;;23.33;7.55;;;28.60;40.90;;;;;;5066910;28;20059;-64
2023/09/23 05:24:41;;;;;;;30.20;7.78;;;28.50;40.80;;;;;;5065348;28;20454;-65
2023/09/23 05:27:08;;;;;;;37.58;8.02;;;28.50;40.80;;;;;;5066822;28;20024;-63
2023/09/23 05:29:34;;;;;;;32.58;9.27;;;28.50;41.50;;;;;;5065467;28;20024;-63
2023/09/23 05:32:00;;;;;;;35.42;9.45;;;28.50;40.90;;;;;;5063782;28;20047;-65
2023/09/23 05:34:27;;;;;;;33.83;8.43;;;28.50;40.50;;;;;;5057867;28;20037;-65
2023/09/23 05:36:54;;;;;;;43.30;8.15;;;28.40;40.00;;;;;;5065801;28;20033;-65
2023/09/23 05:39:20;;;;;;;40.70;7.90;;;28.40;41.20;;;;;;5056323;28;20078;-69
2023/09/23 05:41:47;;;;;;;39.55;8.32;;;28.50;41.00;;;;;;5064738;28;20025;-64
2023/09/23 05:44:15;;;;;;;43.90;9.07;;;28.50;41.10;;;;;;5063817;28;20040;-64
2023/09/23 05:46:42;;;;;;;33.33;7.57;;;28.50;40.50;;;;;;5065384;28;20021;-63
2023/09/23 05:49:09;;;;;;;42.05;8.05;;;28.50;41.20;;;;;;5054079;28;20023;-66
2023/09/23 05:51:36;;;;;;;42.72;8.82;;;28.50;41.10;;;;;;5058459;28;20009;-68
2023/09/23 05:54:03;;;;;;;37.38;7.53;;;28.50;40.80;;;;;;5058900;28;20024;-66
2023/09/23 05:56:30;;;;;;;34.78;8.10;;;28.50;41.40;;;;;;5060804;28;20047;-68
2023/09/23 05:58:56;;;;;;;36.72;8.07;;;28.50;41.10;;;;;;5063646;28;20034;-66
2023/09/23 06:01:23;;;;;;;34.10;7.75;;;28.50;41.80;;;;;;5061583;28;20032;-69
2023/09/23 06:03:50;;;;;;;33.28;7.38;;;28.50;41.50;;;;;;5059115;28;20469;-65
2023/09/23 06:06:18;;;;;;;34.85;7.88;;;28.50;41.70;;;;;;5063717;28;20482;-67
2023/09/23 06:08:48;;;;;;;39.63;8.27;;;28.50;42.20;;;;;;5064559;28;20017;-67
2023/09/23 06:11:14;;;;;;;42.33;11.65;;;28.50;41.30;;;;;;5044783;28;20012;-66
2023/09/23 06:13:41;;;;;;;52.45;13.77;;;28.50;41.50;;;;;;5062801;28;20020;-66
2023/09/23 06:16:07;;;;;;;46.65;11.63;;;28.50;41.10;;;;;;5066025;28;20024;-67
2023/09/23 06:18:34;;;;;;;39.63;9.98;;;28.50;40.30;;;;;;5064919;28;20033;-67
2023/09/23 06:21:02;;;;;;;50.05;8.77;;;28.50;40.20;;;;;;5049665;28;20537;-66
2023/09/23 06:23:29;;;;;;;38.35;11.75;;;28.50;41.20;;;;;;5066176;28;20028;-67
2023/09/23 06:26:02;;;;;;;41.90;13.10;;;28.60;41.40;;;;;;5061463;28;20447;-67
2023/09/23 06:28:29;;;;;;;40.20;8.57;;;28.60;40.90;;;;;;5064671;28;20593;-67
2023/09/23 06:30:56;;;;;;;35.80;9.68;;;28.60;40.90;;;;;;5066010;28;20028;-65
2023/09/23 06:33:23;;;;;;;29.38;8.02;;;28.60;40.90;;;;;;5064321;28;20048;-66
2023/09/23 06:35:49;;;;;;;45.65;8.20;;;28.60;40.20;;;;;;5061258;28;20020;-67
2023/09/23 06:38:16;;;;;;;50.53;7.82;;;28.70;41.20;;;;;;5063687;28;20066;-69
2023/09/23 06:40:43;;;;;;;40.00;7.38;;;28.60;40.10;;;;;;5062887;28;20110;-69
2023/09/23 06:43:12;;;;;;;40.33;7.78;;;28.60;40.20;;;;;;5059590;28;20082;-70
2023/09/23 06:45:40;;;;;;;42.35;8.35;;;28.60;40.20;;;;;;5068631;28;20028;-66
2023/09/23 06:48:06;;;;;;;37.28;7.95;;;28.60;40.50;;;;;;5038549;28;20055;-67
2023/09/23 06:50:33;;;;;;;36.80;7.72;;;28.60;40.90;;;;;;5068818;28;20059;-66
2023/09/23 06:53:00;;;;;;;36.25;7.60;;;28.60;40.80;;;;;;5050373;28;20524;-68
2023/09/23 06:55:27;;;;;;;37.72;7.47;;;28.60;41.30;;;;;;5067591;28;20029;-67
2023/09/23 06:57:53;;;;;;;53.88;9.20;;;28.60;41.60;;;;;;5065504;28;20082;-69
2023/09/23 07:00:21;;;;;;;40.45;9.55;;;28.60;41.20;;;;;;5060128;28;20021;-66
2023/09/23 07:02:47;;;;;;;38.45;8.13;;;28.60;42.20;;;;;;5060191;28;20017;-65
2023/09/23 07:05:14;;;;;;;29.73;7.07;;;28.50;41.90;;;;;;5060304;28;20112;-68
2023/09/23 07:07:40;;;;;;;39.53;8.55;;;28.50;41.30;;;;;;5058742;28;20021;-66
2023/09/23 07:10:09;;;;;;;31.98;7.65;;;28.50;41.30;;;;;;5058947;28;20021;-66
2023/09/23 07:12:35;;;;;;;38.70;7.85;;;28.50;41.20;;;;;;5059572;28;20035;-66
2023/09/23 07:15:02;;;;;;;40.45;7.88;;;28.50;41.10;;;;;;5063331;28;20021;-64
2023/09/23 07:17:28;;;;;;;34.20;7.35;;;28.50;41.00;;;;;;5060736;28;20013;-67
2023/09/23 07:19:55;;;;;;;43.08;8.68;;;28.50;40.70;;;;;;5062927;28;20060;-67
2023/09/23 07:22:21;;;;;;;36.58;7.80;;;28.50;42.40;;;;;;5065188;28;20029;-67
2023/09/23 07:24:48;;;;;;;28.23;6.57;;;28.50;43.40;;;;;;5066842;28;20086;-67
2023/09/23 07:27:14;;;;;;;28.40;7.50;;;28.50;41.00;;;;;;5061034;28;20016;-67
2023/09/23 07:29:41;;;;;;;32.92;7.22;;;28.40;41.00;;;;;;5058641;28;20016;-67
2023/09/23 07:32:07;;;;;;;28.38;7.05;;;28.40;41.00;;;;;;5060204;28;20154;-69
2023/09/23 07:34:34;;;;;;;26.38;6.75;;;28.40;40.60;;;;;;5058498;28;20020;-66
2023/09/23 07:37:00;;;;;;;35.05;7.25;;;28.50;40.50;;;;;;5063451;28;20131;-66
2023/09/23 07:39:28;;;;;;;28.00;6.45;;;28.40;42.60;;;;;;5057791;28;20024;-67
2023/09/23 07:41:54;;;;;;;25.58;6.85;;;28.40;42.50;;;;;;5061164;28;20029;-66
2023/09/23 07:44:21;;;;;;;33.58;6.88;;;28.40;42.90;;;;;;5056627;28;20078;-68
2023/09/23 07:46:48;;;;;;;33.90;6.22;;;28.30;42.80;;;;;;5060338;28;20040;-66
2023/09/23 07:49:14;;;;;;;30.35;6.78;;;28.30;43.00;;;;;;5058202;28;20100;-67
2023/09/23 07:51:40;;;;;;;29.90;6.78;;;28.30;42.90;;;;;;5058518;28;20066;-66
2023/09/23 07:54:07;;;;;;;28.40;6.95;;;28.30;42.70;;;;;;5057343;28;20397;-68
2023/09/23 07:56:34;;;;;;;18.80;6.15;;;28.30;43.10;;;;;;5057915;28;20013;-66
2023/09/23 07:59:00;;;;;;;236.32;12.95;;;28.30;43.30;;;;;;5057711;28;20017;-66
2023/09/23 08:01:26;;;;;;;30.33;6.97;;;28.20;42.70;;;;;;5059568;28;20024;-67
2023/09/23 08:03:53;;;;;;;24.45;7.30;;;28.20;42.40;;;;;;5058477;28;20095;-67
2023/09/23 08:06:20;;;;;;;27.13;6.88;;;28.20;42.10;;;;;;5057181;28;20025;-67
2023/09/23 08:08:47;;;;;;;24.75;6.45;;;28.20;42.30;;;;;;5056604;28;20021;-64
2023/09/23 08:11:14;;;;;;;28.55;6.80;;;28.20;42.00;;;;;;5059117;28;20503;-66
2023/09/23 08:13:41;;;;;;;23.88;7.32;;;28.20;41.90;;;;;;5060741;28;20044;-67
2023/09/23 08:16:07;;;;;;;26.73;7.22;;;28.20;41.70;;;;;;5059319;28;20050;-67
2023/09/23 08:18:33;;;;;;;25.30;7.10;;;28.20;41.90;;;;;;5057150;28;20052;-67
2023/09/23 08:21:00;;;;;;;31.40;7.50;;;28.20;42.80;;;;;;5059017;28;20481;-67
2023/09/23 08:23:27;;;;;;;24.85;6.80;;;28.20;42.00;;;;;;5054158;28;20104;-67
2023/09/23 08:25:55;;;;;;;26.23;7.63;;;28.20;42.30;;;;;;5060896;28;20033;-66
2023/09/23 08:28:22;;;;;;;24.15;7.47;;;28.20;43.00;;;;;;5057198;28;20024;-67
2023/09/23 08:30:50;;;;;;;23.67;6.55;;;28.20;43.00;;;;;;5058843;28;20020;-68
2023/09/23 08:33:16;;;;;;;31.05;7.65;;;28.20;42.50;;;;;;5059136;28;20024;-67
2023/09/23 08:35:47;;;;;;;26.92;6.65;;;28.20;42.40;;;;;;5059811;28;20083;-66
2023/09/23 08:38:14;;;;;;;24.05;7.30;;;28.20;42.60;;;;;;5060542;28;20017;-65
2023/09/23 08:40:43;;;;;;;36.20;7.72;;;28.20;42.90;;;;;;5057512;28;20519;-67
2023/09/23 08:43:11;;;;;;;17.73;7.03;;;28.20;42.90;;;;;;5059209;28;20019;-57
2023/09/23 08:45:46;;;;;;;24.48;6.78;;;28.20;41.70;;;;;;5061126;28;20091;-59
2023/09/23 08:48:16;;;;;;;26.92;6.53;;;28.30;41.80;;;;;;5058237;28;20737;-58
2023/09/23 08:50:46;;;;;;;15.38;6.00;;;28.30;42.40;;;;;;5057581;28;20025;-60
2023/09/23 08:53:15;;;;;;;26.23;6.85;;;28.40;41.70;;;;;;5057019;28;20013;-58
2023/09/23 08:55:44;;;;;;;22.30;6.60;;;28.50;40.40;;;;;;5058478;28;20028;-59
2023/09/23 08:58:11;;;;;;;20.70;6.18;;;28.60;41.50;;;;;;5057924;28;20040;-59
2023/09/23 09:00:44;;;;;;;25.42;6.75;;;28.60;40.90;;;;;;5057209;28;20096;-57
2023/09/23 09:03:11;;;;;;;27.98;6.90;;;28.70;40.90;;;;;;5059298;28;20486;-57
2023/09/23 09:05:41;;;;;;;28.58;7.35;;;28.70;41.00;;;;;;5058909;28;20032;-58
2023/09/23 09:08:07;;;;;;;22.50;7.05;;;28.70;41.10;;;;;;5058419;28;20070;-59
2023/09/23 09:10:34;;;;;;;30.55;8.00;;;28.80;42.00;;;;;;5056953;28;20481;-58
2023/09/23 09:13:05;;;;;;;21.90;6.82;;;28.80;42.30;;;;;;5057973;28;20013;-59
2023/09/23 09:15:35;;;;;;;29.15;7.80;;;28.80;42.60;;;;;;5057071;28;20388;-59
2023/09/23 09:18:04;;;;;;;31.77;7.70;;;28.80;42.00;;;;;;5037801;28;20028;-55
2023/09/23 09:20:32;;;;;;;21.80;7.82;;;28.80;42.20;;;;;;5058312;28;20049;-57
2023/09/23 09:22:58;;;;;;;30.75;7.70;;;28.80;42.50;;;;;;5058633;28;20024;-59
2023/09/23 09:25:25;;;;;;;27.20;6.85;;;28.80;41.90;;;;;;5057190;28;20416;-58
2023/09/23 09:27:53;;;;;;;18.25;6.45;;;28.80;42.60;;;;;;5055700;28;20046;-58
2023/09/23 09:30:19;;;;;;;20.75;6.15;;;28.80;41.50;;;;;;5057423;28;20021;-60
2023/09/23 09:32:47;;;;;;;25.13;7.15;;;28.80;42.30;;;;;;5059463;28;20049;-60
2023/09/23 09:35:18;;;;;;;24.67;6.40;;;28.80;43.10;;;;;;5059445;28;20525;-56
2023/09/23 09:37:47;;;;;;;16.65;6.45;;;28.80;42.60;;;;;;5059936;28;20117;-59
2023/09/23 09:40:18;;;;;;;17.77;7.03;;;28.70;42.50;;;;;;5062967;28;20020;-59
2023/09/23 09:42:55;;;;;;;17.90;6.30;;;28.70;45.00;;;;;;5064178;28;20015;-59
2023/09/23 09:45:23;;;;;;;20.73;6.72;;;28.70;43.80;;;;;;5065439;28;20029;-59
2023/09/23 09:47:53;;;;;;;17.27;6.65;;;28.70;43.90;;;;;;5063091;28;20376;-59
2023/09/23 09:50:22;;;;;;;22.38;6.45;;;28.60;43.90;;;;;;5063506;28;20028;-59
2023/09/23 09:52:48;;;;;;;20.73;6.80;;;28.60;43.40;;;;;;5058994;28;20515;-58
2023/09/23 09:55:18;;;;;;;25.63;5.95;;;28.60;41.80;;;;;;5060845;28;20017;-59
2023/09/23 09:57:48;;;;;;;15.88;6.38;;;28.60;41.00;;;;;;5060189;28;20078;-58
2023/09/23 10:00:28;;;;;;;18.00;6.57;;;28.60;41.00;;;;;;5063964;28;20493;-58
2023/09/23 10:03:11;;;;;;;25.42;5.53;;;28.60;40.20;;;;;;5063547;28;20052;-59
2023/09/23 10:05:51;;;;;;;23.73;5.70;;;28.60;39.30;;;;;;5060194;28;20029;-58
2023/09/23 10:08:30;;;;;;;21.52;6.15;;;28.60;41.00;;;;;;5064602;28;20083;-57
2023/09/23 10:11:03;;;;;;;23.25;5.47;;;28.60;39.10;;;;;;5061936;28;20021;-57
2023/09/23 10:13:33;;;;;;;23.92;5.72;;;28.60;38.90;;;;;;5060025;28;20035;-58
2023/09/23 10:16:14;;;;;;;36.03;6.50;;;28.60;39.30;;;;;;5062900;28;20100;-59
2023/09/23 10:18:41;;;;;;;28.27;6.28;;;28.60;42.10;;;;;;5063004;28;20020;-57
2023/09/23 10:21:21;;;;;;;22.92;6.22;;;28.60;42.90;;;;;;5060688;28;21364;-57
2023/09/23 10:23:50;;;;;;;22.88;5.63;;;28.40;44.10;;;;;;5060317;28;20031;-58
2023/09/23 10:26:20;;;;;;;24.80;6.22;;;28.40;43.80;;;;;;5062003;28;20040;-58
2023/09/23 10:29:01;;;;;;;23.15;5.97;;;28.30;42.90;;;;;;5061272;28;20047;-60
2023/09/23 10:31:32;;;;;;;31.77;6.53;;;28.30;42.60;;;;;;5061416;28;20013;-57
2023/09/23 10:34:10;;;;;;;29.50;6.72;;;28.30;42.40;;;;;;5060294;28;20021;-59
2023/09/23 10:36:36;;;;;;;22.55;6.25;;;28.30;43.30;;;;;;5059585;28;20643;-58
2023/09/23 10:39:07;;;;;;;31.63;6.50;;;28.30;42.90;;;;;;5060523;28;20024;-58
2023/09/23 10:41:37;;;;;;;23.75;6.00;;;28.30;43.30;;;;;;5043074;28;20021;-58
2023/09/23 10:44:04;;;;;;;23.27;6.28;;;28.20;44.10;;;;;;5062615;28;20066;-59
2023/09/23 10:46:31;;;;;;;17.17;6.22;;;28.20;45.40;;;;;;5059067;28;20603;-59
2023/09/23 10:48:59;;;;;;;24.92;7.43;;;28.10;46.40;;;;;;5060716;28;20093;-60
2023/09/23 10:51:27;;;;;;;28.20;7.38;;;28.10;46.10;;;;;;5057955;28;20016;-59
2023/09/23 10:53:55;;;;;;;27.42;7.35;;;28.00;47.00;;;;;;5058452;28;20040;-59
2023/09/23 10:56:22;;;;;;;23.23;5.97;;;27.80;47.40;;;;;;5058994;28;20013;-57
2023/09/23 10:58:53;;;;;;;21.73;6.50;;;27.70;47.60;;;;;;5058756;28;20061;-58
2023/09/23 11:01:23;;;;;;;19.98;6.55;;;27.70;47.80;;;;;;5047590;28;20031;-59
2023/09/23 11:03:49;;;;;;;24.58;5.95;;;27.70;49.10;;;;;;5060180;28;20016;-59
2023/09/23 11:06:17;;;;;;;15.95;5.97;;;27.60;50.60;;;;;;5059952;28;20041;-59
2023/09/23 11:08:43;;;;;;;28.92;8.07;;;27.60;49.90;;;;;;5044039;28;20047;-58
2023/09/23 11:11:10;;;;;;;26.90;11.48;;;27.50;48.30;;;;;;5060742;28;20040;-58
2023/09/23 11:13:36;;;;;;;21.08;12.07;;;27.50;47.20;;;;;;5060015;28;20499;-57
2023/09/23 11:16:10;;;;;;;29.67;11.45;;;27.50;46.80;;;;;;5061980;28;20055;-59
2023/09/23 11:18:37;;;;;;;32.05;9.32;;;27.50;46.50;;;;;;5059103;28;20074;-59
2023/09/23 11:21:04;;;;;;;28.30;7.05;;;27.50;46.20;;;;;;5059446;28;20024;-58
2023/09/23 11:23:30;;;;;;;17.23;5.05;;;27.50;46.20;;;;;;5058031;28;20113;-59
2023/09/23 11:25:57;;;;;;;19.52;5.30;;;27.50;46.10;;;;;;5057818;28;20021;-57
2023/09/23 11:28:25;;;;;;;18.60;5.00;;;27.40;46.10;;;;;;5060067;28;20071;-59
2023/09/23 11:30:53;;;;;;;15.63;5.07;;;27.40;46.50;;;;;;5058897;28;20370;-58
2023/09/23 11:33:24;;;;;;;17.55;5.03;;;27.40;45.90;;;;;;5058331;28;20013;-58
2023/09/23 11:35:51;;;;;;;17.13;4.95;;;27.40;45.60;;;;;;5059508;28;20054;-60
2023/09/23 11:38:19;;;;;;;14.13;5.35;;;27.50;46.30;;;;;;5061787;28;20508;-60
2023/09/23 11:40:46;;;;;;;19.98;4.85;;;27.50;46.60;;;;;;5060254;28;20569;-60
2023/09/23 11:43:13;;;;;;;19.10;4.38;;;27.50;46.60;;;;;;5056243;28;20033;-59
2023/09/23 11:45:42;;;;;;;19.58;5.90;;;27.50;46.00;;;;;;5058532;28;20024;-60
2023/09/23 11:48:09;;;;;;;19.30;7.20;;;27.50;46.20;;;;;;5058193;28;20023;-57
2023/09/23 11:50:36;;;;;;;19.40;6.85;;;27.50;46.60;;;;;;5056374;28;20103;-56
2023/09/23 11:53:03;;;;;;;18.30;6.10;;;27.40;45.40;;;;;;5056796;28;20040;-60
2023/09/23 11:55:31;;;;;;;21.35;5.47;;;27.40;46.00;;;;;;5056985;28;20019;-58
2023/09/23 11:57:57;;;;;;;17.85;5.63;;;27.40;46.30;;;;;;5058795;28;20071;-60
2023/09/23 12:00:25;;;;;;;22.77;6.80;;;27.40;45.30;;;;;;5060099;28;20039;-57
2023/09/23 12:02:51;;;;;;;24.02;7.55;;;27.40;45.30;;;;;;5058936;28;20431;-59
2023/09/23 12:05:18;;;;;;;16.50;5.97;;;27.40;45.70;;;;;;5060443;28;20079;-59
2023/09/23 12:07:45;;;;;;;15.77;5.70;;;27.40;45.90;;;;;;5058404;28;20063;-59
2023/09/23 12:10:14;;;;;;;23.70;5.47;;;27.40;46.00;;;;;;5059145;28;20035;-59
2023/09/23 12:12:43;;;;;;;17.33;5.50;;;27.40;46.00;;;;;;5059693;28;20066;-57
2023/09/23 12:15:09;;;;;;;19.60;5.30;;;27.40;46.20;;;;;;5060194;28;20062;-57
2023/09/23 12:17:37;;;;;;;17.80;5.70;;;27.40;46.40;;;;;;5058204;28;20017;-59
2023/09/23 12:20:05;;;;;;;21.27;5.35;;;27.40;46.50;;;;;;5057666;28;20630;-58
2023/09/23 12:22:31;;;;;;;18.75;5.65;;;27.40;46.30;;;;;;5059334;28;20043;-59
2023/09/23 12:24:58;;;;;;;14.70;5.30;;;27.40;46.30;;;;;;5059536;28;20066;-58
2023/09/23 12:27:27;;;;;;;20.08;6.47;;;27.50;46.80;;;;;;5057681;28;20028;-59
2023/09/23 12:29:55;;;;;;;18.77;6.22;;;27.40;47.50;;;;;;5058539;28;20151;-59
2023/09/23 12:32:22;;;;;;;18.38;5.55;;;27.40;47.00;;;;;;5061632;28;20469;-61
2023/09/23 12:34:49;;;;;;;19.58;6.38;;;27.40;46.50;;;;;;5058648;28;20082;-60
2023/09/23 12:37:16;;;;;;;15.30;4.97;;;27.40;46.30;;;;;;5058028;28;20029;-58
2023/09/23 12:39:42;;;;;;;17.25;5.47;;;27.40;46.20;;;;;;5057383;28;20044;-58
2023/09/23 12:42:09;;;;;;;16.35;5.95;;;27.40;46.30;;;;;;5059256;28;20539;-59
2023/09/23 12:44:36;;;;;;;20.17;5.55;;;27.30;46.50;;;;;;5060370;28;20078;-57